Time;durP1;ratioP1;P1;durP2;ratioP2;P2;SDS_P1;SDS_P2;PMS_P1;PMS_P2;Temp;Humidity;BMP_temperature;BMP_pressure;BME280_temperature;BME280_humidity;BME280_pressure;Samples;Min_cycle;Max_cycle;Signal;HPM_P1;HPM_P2
2022/11/05 00:17:27;;;;;;;27.10;20.60;;;;;;;10.36;90.44;95776.17;105124;1303;24340;-78
2022/11/05 00:19:58;;;;;;;26.10;21.00;;;;;;;10.36;90.38;95768.97;105162;1303;22480;-78
2022/11/05 00:25:19;;;;;;;28.10;20.10;;;;;;;10.34;90.26;95774.21;105175;1303;24281;-78
2022/11/05 00:27:51;;;;;;;25.40;18.50;;;;;;;10.36;90.12;95775.15;105140;1292;22471;-78
2022/11/05 00:30:25;;;;;;;26.20;19.00;;;;;;;10.39;89.96;95772.90;105178;1292;22478;-78
2022/11/05 00:33:00;;;;;;;21.60;18.10;;;;;;;10.41;89.80;95763.19;105179;1303;24341;-78
2022/11/05 00:35:31;;;;;;;25.90;19.20;;;;;;;10.42;89.70;95763.34;105170;1281;22561;-79
2022/11/05 00:38:02;;;;;;;22.60;18.80;;;;;;;10.42;89.59;95764.41;104976;1291;190933;-78
2022/11/05 00:40:34;;;;;;;25.20;18.50;;;;;;;10.42;89.55;95767.96;105165;1289;22478;-79
2022/11/05 00:45:54;;;;;;;26.20;18.40;;;;;;;10.44;89.36;95775.48;105140;1303;25462;-79
2022/11/05 00:51:13;;;;;;;25.50;18.80;;;;;;;10.51;89.17;95783.87;105182;1282;25359;-78
2022/11/05 00:53:44;;;;;;;22.60;18.40;;;;;;;10.54;89.03;95788.35;105211;1303;22461;-78
2022/11/05 00:56:16;;;;;;;22.80;18.10;;;;;;;10.56;88.87;95791.88;105200;1288;22452;-78
2022/11/05 00:58:47;;;;;;;23.90;19.10;;;;;;;10.56;88.81;95793.46;105093;1295;25339;-78
2022/11/05 01:01:18;;;;;;;24.90;20.10;;;;;;;10.54;88.64;95795.23;105150;1288;24279;-78
2022/11/05 01:03:49;;;;;;;23.80;19.00;;;;;;;10.53;88.70;95795.36;105138;1291;22451;-78
2022/11/05 01:06:20;;;;;;;26.10;18.90;;;;;;;10.53;88.69;95793.30;105178;1281;22453;-78
2022/11/05 01:08:52;;;;;;;27.30;19.40;;;;;;;10.53;88.62;95789.06;105149;1289;22480;-78
2022/11/05 01:11:35;;;;;;;23.20;18.90;;;;;;;10.54;88.61;95789.41;105134;1291;25354;-78
2022/11/05 01:14:09;;;;;;;22.50;18.30;;;;;;;10.56;88.56;95791.77;105165;1304;22511;-79
2022/11/05 01:16:41;;;;;;;25.70;19.20;;;;;;;10.57;88.59;95794.36;105199;1301;22454;-79
2022/11/05 01:19:12;;;;;;;25.00;17.60;;;;;;;10.55;88.54;95793.41;105173;1303;24343;-79
2022/11/05 01:21:43;;;;;;;23.60;18.80;;;;;;;10.53;88.43;95797.02;105190;1303;26330;-79
2022/11/05 01:24:14;;;;;;;22.60;17.90;;;;;;;10.54;88.45;95793.05;105169;1297;22888;-79
2022/11/05 01:26:46;;;;;;;25.40;19.00;;;;;;;10.54;88.38;95790.63;105178;1303;22494;-79
2022/11/05 01:29:19;;;;;;;23.90;19.20;;;;;;;10.53;88.30;95794.42;105122;1291;25537;-79
2022/11/05 01:31:50;;;;;;;23.10;18.60;;;;;;;10.54;88.16;95800.07;105210;1306;25502;-79
2022/11/05 01:34:21;;;;;;;22.90;17.80;;;;;;;10.57;88.06;95803.21;105160;1305;22486;-79
2022/11/05 01:36:52;;;;;;;21.70;18.10;;;;;;;10.58;87.99;95802.38;105173;1298;22472;-79
2022/11/05 01:39:23;;;;;;;23.70;18.20;;;;;;;10.58;87.97;95804.66;105136;1305;22493;-79
2022/11/05 01:41:54;;;;;;;22.70;18.10;;;;;;;10.58;87.91;95805.94;105167;1306;22541;-79
2022/11/05 01:44:59;;;;;;;22.00;18.20;;;;;;;10.57;87.95;95806.95;105195;1299;22468;-79
2022/11/05 01:47:41;;;;;;;21.70;16.80;;;;;;;10.54;87.96;95807.81;105123;1291;22699;-77
2022/11/05 01:50:34;;;;;;;21.90;17.60;;;;;;;10.50;88.16;95805.09;105169;1278;22513;-77
2022/11/05 01:53:16;;;;;;;22.30;17.90;;;;;;;10.52;88.19;95814.36;105201;1306;25487;-78
2022/11/05 01:55:54;;;;;;;19.00;15.60;;;;;;;10.58;88.14;95815.36;105191;1306;22465;-78
2022/11/05 01:58:30;;;;;;;22.10;17.70;;;;;;;10.63;87.99;95815.98;105100;1281;22542;-78
2022/11/05 02:01:02;;;;;;;23.10;18.40;;;;;;;10.67;87.83;95815.33;105191;1303;24241;-78
2022/11/05 02:03:34;;;;;;;23.00;18.80;;;;;;;10.68;87.69;95814.55;105179;1288;22517;-78
2022/11/05 02:06:08;;;;;;;23.80;19.20;;;;;;;10.68;87.57;95813.55;105200;1303;22645;-78
2022/11/05 02:08:56;;;;;;;23.60;19.70;;;;;;;10.68;87.46;95818.42;105051;1303;22455;-78
2022/11/05 02:11:27;;;;;;;23.20;18.70;;;;;;;10.66;87.44;95818.69;105143;1303;22461;-78
2022/11/05 02:14:00;;;;;;;25.20;19.90;;;;;;;10.65;87.32;95819.39;105146;1297;22468;-78
2022/11/05 02:16:41;;;;;;;24.70;19.60;;;;;;;10.64;87.32;95818.23;105141;1303;22463;-78
2022/11/05 02:19:41;;;;;;;23.10;18.90;;;;;;;10.64;87.37;95821.38;105129;1303;24331;-78
2022/11/05 02:22:50;;;;;;;22.20;17.80;;;;;;;10.64;87.27;95817.14;105171;1289;22461;-78
2022/11/05 02:25:49;;;;;;;23.80;19.50;;;;;;;10.63;87.27;95822.56;104809;1303;22458;-78
2022/11/05 02:28:43;;;;;;;26.80;18.70;;;;;;;10.61;87.35;95825.41;105192;1303;22637;-78
2022/11/05 02:31:23;;;;;;;24.60;19.60;;;;;;;10.59;87.33;95824.40;105193;1303;25442;-78
2022/11/05 02:34:02;;;;;;;23.70;19.40;;;;;;;10.56;87.46;95821.40;105219;1303;24273;-78
2022/11/05 02:36:45;;;;;;;23.60;18.00;;;;;;;10.52;87.58;95823.26;105196;1303;22477;-79
2022/11/05 02:39:27;;;;;;;21.10;17.20;;;;;;;10.52;87.89;95824.59;105159;1284;22472;-78
2022/11/05 02:42:08;;;;;;;23.80;17.70;;;;;;;10.55;88.08;95823.22;105181;1288;22487;-78
2022/11/05 02:44:47;;;;;;;20.30;15.90;;;;;;;10.58;88.18;95827.45;105177;1298;22467;-79
2022/11/05 02:47:30;;;;;;;17.30;14.10;;;;;;;10.60;88.36;95831.12;105120;1281;22506;-78
2022/11/05 02:50:19;;;;;;;20.80;15.00;;;;;;;10.64;88.60;95841.52;105170;1303;22463;-79
2022/11/05 02:52:59;;;;;;;19.00;13.80;;;;;;;10.66;88.53;95846.78;105190;1303;22527;-79
2022/11/05 02:55:37;;;;;;;20.90;17.80;;;;;;;10.68;88.71;95858.61;105188;1294;22464;-79
2022/11/05 02:58:09;;;;;;;23.30;17.50;;;;;;;10.66;88.59;95868.98;105160;1303;22467;-79
2022/11/05 03:00:54;;;;;;;21.30;16.40;;;;;;;10.62;88.77;95873.70;105170;1304;22664;-79
2022/11/05 03:03:30;;;;;;;21.30;16.80;;;;;;;10.59;89.06;95878.69;105168;1305;22477;-79
2022/11/05 03:06:31;;;;;;;19.10;16.30;;;;;;;10.59;89.38;95883.77;105158;1298;22470;-79
2022/11/05 03:09:09;;;;;;;;;;;;;;;10.57;89.45;95891.39;105110;1291;22444;-79
2022/11/05 03:11:51;;;;;;;16.80;14.50;;;;;;;10.57;89.56;95892.67;105173;1288;24120;-78
2022/11/05 03:14:28;;;;;;;22.30;17.10;;;;;;;10.59;89.70;95897.71;105181;1294;22480;-79
2022/11/05 03:17:07;;;;;;;20.50;15.70;;;;;;;10.55;90.09;95901.98;105159;1282;22465;-79
2022/11/05 03:19:46;;;;;;;19.70;15.40;;;;;;;10.48;90.46;95902.50;105140;1304;33182;-79
2022/11/05 03:22:23;;;;;;;21.80;15.90;;;;;;;10.43;90.84;95907.89;105194;1305;22482;-79
2022/11/05 03:24:58;;;;;;;20.40;15.50;;;;;;;10.40;91.30;95909.33;105179;1301;26191;-79
2022/11/05 03:27:33;;;;;;;20.20;15.60;;;;;;;10.38;91.51;95911.41;105137;1291;22472;-78
2022/11/05 03:30:09;;;;;;;21.10;16.50;;;;;;;10.36;91.84;95913.20;105153;1291;22520;-79
2022/11/05 03:32:44;;;;;;;21.30;15.50;;;;;;;10.33;92.19;95913.90;105223;1306;22484;-79
2022/11/05 03:35:20;;;;;;;21.00;16.50;;;;;;;10.29;92.64;95917.90;105170;1297;23363;-79
2022/11/05 03:37:56;;;;;;;22.30;18.30;;;;;;;10.24;93.15;95912.52;105139;1304;22486;-79
2022/11/05 03:40:29;;;;;;;23.60;18.80;;;;;;;10.19;93.63;95909.41;105178;1305;22472;-79
2022/11/05 03:43:03;;;;;;;24.50;18.70;;;;;;;10.16;93.91;95911.44;105173;1306;22547;-79
2022/11/05 03:45:38;;;;;;;21.40;18.10;;;;;;;10.15;94.11;95914.95;105195;1296;25329;-79
2022/11/05 03:48:12;;;;;;;20.00;17.20;;;;;;;10.17;94.25;95915.70;105131;1306;25343;-79
2022/11/05 03:50:52;;;;;;;22.60;17.70;;;;;;;10.17;94.45;95918.08;105177;1306;22544;-79
2022/11/05 03:53:28;;;;;;;21.50;18.50;;;;;;;10.16;94.46;95924.93;105191;1306;22490;-78
2022/11/05 03:56:03;;;;;;;17.90;15.90;;;;;;;10.18;94.66;95925.80;105175;1291;27578;-79
2022/11/05 03:58:36;;;;;;;21.10;18.50;;;;;;;10.16;94.80;95927.80;105147;1306;22496;-79
2022/11/05 04:01:07;;;;;;;20.80;16.70;;;;;;;10.12;95.10;95931.35;105169;1284;22662;-79
2022/11/05 04:03:38;;;;;;;22.80;18.80;;;;;;;10.08;95.32;95933.00;105184;1281;22475;-79
2022/11/05 04:14:33;;;;;;;15.80;13.20;;;;;;;9.93;95.04;95944.96;104929;1303;22514;-79
2022/11/05 04:17:08;;;;;;;16.10;12.20;;;;;;;9.79;94.92;95946.67;105155;1303;22488;-78
2022/11/05 04:25:22;;;;;;;11.50;9.20;;;;;;;9.54;95.01;95954.56;105170;1282;24122;-79
2022/11/05 04:27:53;;;;;;;9.80;7.70;;;;;;;9.44;95.24;95957.98;105096;1303;22947;-78
2022/11/05 04:30:24;;;;;;;10.90;8.00;;;;;;;9.37;95.46;95962.89;105170;1284;23791;-78
2022/11/05 04:33:01;;;;;;;9.50;7.80;;;;;;;9.37;95.50;95963.16;105151;1306;22452;-78
2022/11/05 04:35:35;;;;;;;8.70;7.10;;;;;;;9.37;95.47;95964.75;105186;1305;22469;-79
2022/11/05 04:38:09;;;;;;;7.60;6.40;;;;;;;9.36;95.30;95964.61;105168;1303;25343;-78
2022/11/05 04:40:40;;;;;;;8.00;7.00;;;;;;;9.32;95.15;95964.61;105163;1295;22473;-78
2022/11/05 04:43:16;;;;;;;7.60;5.80;;;;;;;9.34;95.43;95965.39;105157;1295;22474;-78
2022/11/05 04:45:47;;;;;;;7.00;5.90;;;;;;;9.34;95.31;95966.02;105182;1302;22504;-78
2022/11/05 04:48:18;;;;;;;8.00;6.70;;;;;;;9.34;95.30;95968.77;105132;1284;22469;-78
2022/11/05 04:50:49;;;;;;;8.50;6.90;;;;;;;9.35;95.30;95971.54;105182;1298;24340;-78
2022/11/05 04:53:23;;;;;;;8.90;7.50;;;;;;;9.35;95.39;95977.53;105176;1306;22466;-78
2022/11/05 04:55:54;;;;;;;12.20;9.90;;;;;;;9.37;95.53;95980.34;105169;1306;22471;-78
2022/11/05 04:58:25;;;;;;;12.00;9.60;;;;;;;9.43;95.76;95984.93;105119;1303;24991;-78
2022/11/05 05:00:56;;;;;;;11.40;10.20;;;;;;;9.45;95.86;95984.13;105152;1289;25207;-78
2022/11/05 05:03:27;;;;;;;8.80;7.60;;;;;;;9.47;95.85;95985.15;105194;1295;22464;-78
2022/11/05 05:06:02;;;;;;;8.60;7.70;;;;;;;9.42;95.89;95990.88;105150;1295;22516;-78
2022/11/05 05:08:34;;;;;;;9.30;7.80;;;;;;;9.23;95.89;95993.88;105084;1303;22787;-78
2022/11/05 05:11:07;;;;;;;9.60;8.50;;;;;;;9.05;96.01;95996.11;105188;1288;22452;-78
2022/11/05 05:13:38;;;;;;;9.20;7.40;;;;;;;8.93;96.31;95998.47;105191;1302;22504;-78
2022/11/05 05:16:16;;;;;;;7.90;6.80;;;;;;;8.87;96.60;96000.34;105181;1303;22457;-78
2022/11/05 05:18:47;;;;;;;9.00;8.00;;;;;;;8.91;96.79;96008.95;105141;1302;23996;-78
2022/11/05 05:21:39;;;;;;;9.90;8.90;;;;;;;8.94;96.88;96010.89;105165;1282;22456;-78
2022/11/05 05:24:12;;;;;;;7.50;6.70;;;;;;;8.95;96.86;96011.88;105152;1291;22458;-79
2022/11/05 05:26:45;;;;;;;6.30;5.40;;;;;;;8.90;96.61;96011.41;105210;1289;23289;-79
2022/11/05 05:29:16;;;;;;;7.30;6.50;;;;;;;8.90;96.37;96013.63;105124;1295;22500;-78
2022/11/05 05:31:48;;;;;;;7.70;6.50;;;;;;;8.87;96.64;96011.02;105164;1303;22473;-79
2022/11/05 05:34:19;;;;;;;7.40;6.60;;;;;;;8.82;96.77;96016.55;105186;1302;22485;-79
2022/11/05 05:36:50;;;;;;;6.70;5.40;;;;;;;8.74;96.89;96023.31;105170;1303;22474;-79
2022/11/05 05:39:21;;;;;;;6.00;5.30;;;;;;;8.69;96.85;96025.41;105092;1303;22468;-78
2022/11/05 05:41:54;;;;;;;6.60;5.60;;;;;;;8.70;96.84;96032.33;105146;1296;25353;-79
2022/11/05 05:44:25;;;;;;;7.60;6.60;;;;;;;8.69;97.14;96041.79;105181;1302;22455;-79
2022/11/05 05:46:57;;;;;;;6.20;5.60;;;;;;;8.61;97.54;96049.18;105164;1303;22479;-79
2022/11/05 05:49:28;;;;;;;7.30;6.50;;;;;;;8.52;97.91;96053.22;105136;1295;22505;-79
2022/11/05 05:51:59;;;;;;;7.90;7.00;;;;;;;8.43;98.31;96058.21;105161;1297;25904;-79
2022/11/05 05:54:31;;;;;;;8.40;7.50;;;;;;;8.33;98.68;96060.28;105177;1294;25458;-79
2022/11/05 05:57:03;;;;;;;9.80;8.60;;;;;;;8.23;99.11;96066.38;105158;1289;22469;-78
2022/11/05 05:59:34;;;;;;;9.40;7.90;;;;;;;8.18;99.18;96069.38;105156;1303;34947;-79
2022/11/05 06:02:05;;;;;;;9.10;7.40;;;;;;;8.22;99.26;96070.30;105161;1303;25427;-79
2022/11/05 06:04:36;;;;;;;9.60;8.30;;;;;;;8.27;99.37;96071.63;105157;1303;22469;-79
2022/11/05 06:07:09;;;;;;;9.10;8.20;;;;;;;8.35;99.37;96074.91;105136;1295;22460;-78
2022/11/05 06:09:40;;;;;;;9.00;7.80;;;;;;;8.40;99.20;96075.56;105171;1302;22509;-79
2022/11/05 06:12:11;;;;;;;9.60;8.60;;;;;;;8.33;99.13;96085.75;105166;1294;22507;-79
2022/11/05 06:14:43;;;;;;;10.40;9.10;;;;;;;8.27;99.13;96092.74;105171;1303;22452;-79
2022/11/05 06:17:14;;;;;;;9.10;8.10;;;;;;;8.31;99.26;96101.39;105154;1303;22464;-78
2022/11/05 06:19:45;;;;;;;9.10;8.20;;;;;;;8.34;99.26;96104.55;105209;1294;22470;-79
2022/11/05 06:22:17;;;;;;;9.70;8.70;;;;;;;8.24;99.43;96105.81;105190;1303;22482;-79
2022/11/05 06:24:48;;;;;;;9.20;8.30;;;;;;;8.17;99.75;96119.65;105170;1303;22461;-78
2022/11/05 06:27:19;;;;;;;9.10;8.30;;;;;;;8.17;99.91;96119.02;105107;1285;25218;-78
2022/11/05 06:29:51;;;;;;;10.40;8.50;;;;;;;8.14;99.95;96122.88;105180;1289;22513;-79
2022/11/05 06:32:22;;;;;;;10.70;8.50;;;;;;;8.14;99.92;96126.63;105178;1303;22492;-78
2022/11/05 06:34:53;;;;;;;10.60;7.70;;;;;;;8.17;100.00;96128.00;105189;1303;22900;-78
2022/11/05 06:37:24;;;;;;;9.10;8.20;;;;;;;8.22;100.00;96127.02;105156;1296;22474;-78
2022/11/05 06:40:00;;;;;;;8.80;7.90;;;;;;;8.22;100.00;96134.08;105188;1303;22480;-78
2022/11/05 06:42:31;;;;;;;9.70;8.70;;;;;;;8.20;100.00;96141.70;105184;1303;22466;-78
2022/11/05 06:45:03;;;;;;;10.40;8.60;;;;;;;8.22;100.00;96148.14;105161;1285;22470;-78
2022/11/05 06:47:34;;;;;;;4.30;3.80;;;;;;;8.27;99.92;96142.13;105137;1294;22559;-78
2022/11/05 06:50:09;;;;;;;3.90;3.10;;;;;;;8.22;99.39;96142.84;105188;1303;22583;-78
2022/11/05 06:52:40;;;;;;;2.70;2.20;;;;;;;8.18;98.77;96140.61;105244;1298;22442;-78
2022/11/05 06:55:12;;;;;;;2.60;2.40;;;;;;;8.16;98.50;96149.43;105151;1303;22459;-79
2022/11/05 06:57:43;;;;;;;2.50;2.30;;;;;;;8.13;98.36;96148.65;105145;1300;22478;-78
2022/11/05 07:00:16;;;;;;;2.20;1.80;;;;;;;8.14;98.28;96150.29;105149;1297;22458;-79
2022/11/05 07:02:50;;;;;;;2.20;2.00;;;;;;;8.15;98.02;96156.98;105195;1306;22578;-78
2022/11/05 07:05:22;;;;;;;2.40;1.50;;;;;;;8.13;98.11;96154.84;105185;1300;22420;-78
2022/11/05 07:07:53;;;;;;;1.70;1.40;;;;;;;8.09;97.63;96157.98;105127;1305;22517;-78
2022/11/05 07:10:25;;;;;;;1.30;1.20;;;;;;;8.08;97.74;96161.73;105193;1282;24262;-78
2022/11/05 07:12:57;;;;;;;1.30;1.20;;;;;;;8.08;97.63;96167.91;105158;1303;22462;-78
2022/11/05 07:15:29;;;;;;;1.80;1.60;;;;;;;8.08;97.52;96174.41;105142;1278;22477;-78
2022/11/05 07:18:01;;;;;;;1.10;0.80;;;;;;;8.06;97.40;96174.16;105124;1302;22474;-78
2022/11/05 07:20:32;;;;;;;1.50;1.40;;;;;;;8.05;97.37;96181.62;105160;1282;24119;-79
2022/11/05 07:23:06;;;;;;;1.20;1.10;;;;;;;8.06;97.47;96184.40;105192;1287;22472;-78
2022/11/05 07:25:40;;;;;;;3.30;2.10;;;;;;;8.07;97.34;96192.48;105222;1288;22467;-78
2022/11/05 07:28:13;;;;;;;3.60;2.00;;;;;;;8.06;97.49;96191.21;105141;1303;27629;-78
2022/11/05 07:30:44;;;;;;;1.70;1.10;;;;;;;8.07;97.45;96191.52;105184;1294;22510;-79
2022/11/05 07:33:15;;;;;;;3.10;1.60;;;;;;;8.07;97.43;96192.64;105164;1303;25543;-79
2022/11/05 07:35:47;;;;;;;0.70;0.60;;;;;;;8.10;97.32;96189.92;105199;1303;24413;-79
2022/11/05 07:38:18;;;;;;;1.10;0.90;;;;;;;8.08;97.13;96193.46;105103;1303;25401;-78
2022/11/05 07:40:50;;;;;;;1.10;1.00;;;;;;;8.09;97.16;96197.48;105164;1298;22509;-78
2022/11/05 07:43:21;;;;;;;0.70;0.60;;;;;;;8.14;97.37;96196.55;105184;1289;22503;-78
2022/11/05 07:45:52;;;;;;;1.00;0.60;;;;;;;8.16;97.29;96197.23;105196;1288;24250;-78
2022/11/05 07:48:23;;;;;;;0.70;0.60;;;;;;;8.16;97.22;96201.71;105133;1303;22530;-78
2022/11/05 07:50:57;;;;;;;0.90;0.50;;;;;;;8.16;96.78;96201.93;105205;1303;25283;-79
2022/11/05 07:53:29;;;;;;;0.50;0.50;;;;;;;8.16;96.74;96206.09;105206;1288;25564;-78
2022/11/05 07:56:00;;;;;;;0.40;0.40;;;;;;;8.15;96.73;96207.99;105198;1281;22476;-78
2022/11/05 07:58:32;;;;;;;1.00;0.60;;;;;;;8.11;96.70;96208.60;105161;1298;22528;-78
2022/11/05 08:01:03;;;;;;;0.30;0.30;;;;;;;8.11;96.55;96206.08;105157;1289;22535;-78
2022/11/05 08:03:35;;;;;;;0.70;0.50;;;;;;;8.08;96.49;96204.02;105174;1297;23135;-78
2022/11/05 08:06:07;;;;;;;1.00;0.50;;;;;;;8.07;96.54;96206.35;105145;1294;25214;-78
2022/11/05 08:08:38;;;;;;;0.60;0.50;;;;;;;8.08;96.75;96204.52;105119;1303;22461;-79
2022/11/05 08:11:11;;;;;;;0.20;0.20;;;;;;;8.10;96.58;96204.71;105164;1289;22543;-78
2022/11/05 08:13:42;;;;;;;0.20;0.20;;;;;;;8.07;96.38;96202.88;105165;1288;25380;-78
2022/11/05 08:16:16;;;;;;;0.60;0.40;;;;;;;8.06;96.37;96206.64;105175;1303;22499;-78
2022/11/05 08:18:48;;;;;;;0.40;0.40;;;;;;;8.05;96.45;96205.00;105118;1304;22480;-78
2022/11/05 08:21:19;;;;;;;0.40;0.40;;;;;;;8.00;96.40;96204.73;105197;1294;24406;-78
2022/11/05 08:23:50;;;;;;;0.90;0.50;;;;;;;7.97;96.62;96214.89;105178;1298;22685;-78
2022/11/05 08:26:22;;;;;;;1.30;0.50;;;;;;;7.94;96.70;96215.98;105184;1291;22475;-78
2022/11/05 08:28:56;;;;;;;0.60;0.40;;;;;;;7.89;97.05;96223.39;105120;1303;22476;-78
2022/11/05 08:31:29;;;;;;;0.90;0.70;;;;;;;7.86;97.02;96223.85;105163;1288;22467;-79
2022/11/05 08:34:00;;;;;;;1.00;0.90;;;;;;;7.83;97.09;96228.94;105188;1303;22589;-78
2022/11/05 08:36:32;;;;;;;3.60;1.30;;;;;;;7.81;97.27;96236.77;105171;1284;26440;-78
2022/11/05 08:39:04;;;;;;;1.10;0.70;;;;;;;7.79;97.52;96249.13;105116;1287;22465;-78
2022/11/05 08:41:36;;;;;;;1.20;1.00;;;;;;;7.79;97.57;96251.13;105188;1297;22503;-78
2022/11/05 08:44:08;;;;;;;1.00;0.50;;;;;;;7.79;97.60;96254.14;105205;1303;22484;-78
2022/11/05 08:46:40;;;;;;;0.70;0.60;;;;;;;7.79;97.65;96260.89;105181;1303;22488;-78
2022/11/05 08:49:11;;;;;;;0.80;0.60;;;;;;;7.77;97.92;96261.54;105130;1295;24226;-78
2022/11/05 08:51:43;;;;;;;1.30;0.60;;;;;;;7.74;97.88;96266.39;105192;1303;22472;-78
2022/11/05 08:54:15;;;;;;;0.80;0.70;;;;;;;7.73;98.04;96268.80;105175;1282;22468;-78
2022/11/05 08:56:46;;;;;;;4.30;2.20;;;;;;;7.73;98.19;96276.24;105166;1301;22485;-79
2022/11/05 08:59:17;;;;;;;2.50;1.70;;;;;;;7.74;98.48;96278.90;105121;1295;22501;-78
2022/11/05 09:01:49;;;;;;;4.50;2.80;;;;;;;7.77;98.55;96278.69;105202;1293;22475;-79
2022/11/05 09:04:21;;;;;;;6.70;3.30;;;;;;;7.76;98.84;96276.11;105135;1303;22473;-79
2022/11/05 09:06:52;;;;;;;6.70;3.00;;;;;;;7.74;98.78;96279.52;105164;1303;22496;-78
2022/11/05 09:09:23;;;;;;;6.20;2.90;;;;;;;7.72;98.83;96283.85;105088;1289;22470;-78
2022/11/05 09:11:54;;;;;;;5.80;3.50;;;;;;;7.76;99.01;96285.40;105191;1295;22505;-79
2022/11/05 09:14:26;;;;;;;5.40;3.30;;;;;;;7.78;99.04;96288.91;105161;1304;25288;-78
2022/11/05 09:16:57;;;;;;;3.40;2.10;;;;;;;7.84;99.23;96290.42;105186;1301;22467;-78
2022/11/05 09:19:29;;;;;;;2.60;1.50;;;;;;;7.87;99.02;96291.52;105122;1287;25461;-78
2022/11/05 09:22:00;;;;;;;2.90;2.10;;;;;;;7.88;98.92;96296.11;105206;1287;22462;-78
2022/11/05 09:24:31;;;;;;;2.20;1.20;;;;;;;7.93;98.99;96294.27;105175;1288;22593;-79
2022/11/05 09:27:03;;;;;;;1.00;0.90;;;;;;;7.96;99.00;96294.41;105150;1303;22857;-78
2022/11/05 09:29:34;;;;;;;0.60;0.40;;;;;;;7.98;98.96;96297.30;105125;1306;37947;-78
2022/11/05 09:32:06;;;;;;;1.20;0.70;;;;;;;7.97;98.68;96297.14;105178;1303;22531;-78
2022/11/05 09:34:38;;;;;;;0.50;0.30;;;;;;;7.95;98.63;96296.36;105168;1306;22469;-79
2022/11/05 09:37:09;;;;;;;0.70;0.40;;;;;;;7.88;98.50;96296.27;105118;1306;22471;-78
2022/11/05 09:39:40;;;;;;;0.40;0.30;;;;;;;7.85;98.49;96297.39;105184;1303;22489;-78
2022/11/05 09:42:17;;;;;;;1.00;0.70;;;;;;;7.81;98.45;96303.27;105173;1303;22497;-79
2022/11/05 09:44:52;;;;;;;1.00;0.60;;;;;;;7.80;98.58;96302.79;105171;1300;22634;-79
2022/11/05 09:47:27;;;;;;;0.50;0.50;;;;;;;7.83;98.62;96303.95;105113;1303;22450;-78
2022/11/05 09:50:01;;;;;;;0.60;0.50;;;;;;;7.85;98.60;96302.34;105164;1310;25211;-78
2022/11/05 09:52:37;;;;;;;1.10;0.60;;;;;;;7.87;98.66;96299.17;105154;1291;22482;-78
2022/11/05 09:55:19;;;;;;;1.20;0.70;;;;;;;7.89;98.46;96305.10;105199;1288;22553;-78
2022/11/05 09:57:56;;;;;;;2.00;1.10;;;;;;;7.92;98.42;96301.35;105150;1294;22464;-78
2022/11/05 10:00:28;;;;;;;0.90;0.70;;;;;;;7.95;98.59;96303.02;105204;1301;22467;-78
2022/11/05 10:03:04;;;;;;;1.10;0.70;;;;;;;8.00;98.41;96307.42;105188;1297;22483;-78
2022/11/05 10:05:37;;;;;;;1.10;0.70;;;;;;;7.99;98.14;96311.76;105161;1301;22484;-79
2022/11/05 10:08:15;;;;;;;1.60;1.00;;;;;;;7.99;98.15;96314.08;105125;1294;22518;-79
2022/11/05 10:10:51;;;;;;;2.10;1.30;;;;;;;8.03;98.11;96318.89;105181;1306;22481;-79
2022/11/05 10:13:33;;;;;;;3.00;2.00;;;;;;;8.06;98.26;96320.68;105145;1295;22472;-79
2022/11/05 10:16:13;;;;;;;2.00;1.50;;;;;;;8.15;98.42;96326.81;105204;1284;22472;-79
2022/11/05 10:18:48;;;;;;;3.80;1.80;;;;;;;8.10;97.95;96325.83;105191;1294;22932;-79
2022/11/05 10:21:21;;;;;;;4.50;1.60;;;;;;;8.04;97.92;96323.73;105159;1304;22587;-79
2022/11/05 10:23:53;;;;;;;2.30;1.50;;;;;;;8.02;98.06;96326.75;105197;1294;26427;-80
2022/11/05 10:26:29;;;;;;;2.00;1.30;;;;;;;7.99;97.88;96326.08;105172;1304;25220;-79
2022/11/05 10:29:01;;;;;;;1.70;1.00;;;;;;;7.97;97.97;96324.34;105194;1298;22468;-79
2022/11/05 10:31:39;;;;;;;2.80;1.90;;;;;;;7.94;98.02;96327.41;105170;1303;22464;-79
2022/11/05 10:34:12;;;;;;;2.10;1.60;;;;;;;7.95;98.19;96331.05;105188;1310;22626;-79
2022/11/05 10:36:44;;;;;;;2.80;1.50;;;;;;;7.97;98.44;96333.63;105170;1304;24281;-79
2022/11/05 10:39:17;;;;;;;3.20;1.20;;;;;;;7.99;98.73;96336.57;105147;1304;25044;-79
2022/11/05 10:42:08;;;;;;;5.00;2.30;;;;;;;7.96;98.52;96337.74;105171;1281;22555;-79
2022/11/05 10:44:47;;;;;;;1.70;1.20;;;;;;;7.92;98.78;96342.40;105185;1304;23768;-79
2022/11/05 10:47:39;;;;;;;2.30;1.50;;;;;;;7.89;98.72;96341.84;105140;1292;23318;-78
2022/11/05 10:50:16;;;;;;;3.50;1.90;;;;;;;7.88;99.04;96341.25;105170;1304;22474;-79
2022/11/05 10:52:57;;;;;;;3.80;1.70;;;;;;;7.86;99.12;96348.73;105191;1294;22486;-79
2022/11/05 10:55:34;;;;;;;2.30;1.40;;;;;;;7.88;99.40;96343.84;105156;1292;22481;-79
2022/11/05 10:58:21;;;;;;;2.60;1.40;;;;;;;7.90;99.49;96345.70;105122;1288;22491;-79
2022/11/05 11:01:10;;;;;;;2.20;1.30;;;;;;;7.93;99.53;96338.29;105124;1303;22521;-79
2022/11/05 11:03:47;;;;;;;1.40;1.30;;;;;;;7.94;99.34;96339.55;105181;1288;22471;-80
2022/11/05 11:06:25;;;;;;;1.30;1.00;;;;;;;7.95;99.36;96344.35;105193;1287;25351;-80
2022/11/05 11:09:01;;;;;;;1.70;1.10;;;;;;;8.00;99.34;96348.08;105236;1295;23079;-80
2022/11/05 11:11:35;;;;;;;1.60;1.10;;;;;;;8.07;99.52;96350.98;105317;1303;22499;-80
2022/11/05 11:14:18;;;;;;;1.20;1.10;;;;;;;8.09;99.10;96350.98;105253;1304;22507;-80
2022/11/05 11:16:55;;;;;;;1.30;1.20;;;;;;;8.05;99.02;96351.25;105184;1302;22466;-80
2022/11/05 11:19:30;;;;;;;0.90;0.80;;;;;;;8.06;99.03;96351.83;105158;1294;22463;-80
2022/11/05 11:22:20;;;;;;;1.80;1.00;;;;;;;8.09;99.06;96352.88;105184;1303;22505;-80
2022/11/05 11:24:53;;;;;;;0.80;0.70;;;;;;;8.08;98.80;96353.14;105178;1298;22455;-80
2022/11/05 11:27:27;;;;;;;1.00;0.80;;;;;;;8.05;98.69;96353.31;105197;1282;22514;-79
2022/11/05 11:30:01;;;;;;;1.20;1.10;;;;;;;8.03;98.66;96352.41;105275;1304;22597;-80
2022/11/05 11:32:38;;;;;;;0.90;0.80;;;;;;;8.03;98.63;96356.85;105289;1296;22471;-78
2022/11/05 11:35:21;;;;;;;0.70;0.70;;;;;;;8.01;98.53;96355.52;105263;1282;23677;-79
2022/11/05 11:37:55;;;;;;;1.20;1.10;;;;;;;8.02;98.83;96356.96;105242;1304;22463;-79
2022/11/05 11:40:32;;;;;;;1.70;1.50;;;;;;;8.03;98.98;96360.50;105291;1296;22596;-79
2022/11/05 11:43:13;;;;;;;48.60;21.10;;;;;;;8.02;98.82;96359.39;105257;1281;22458;-79
2022/11/05 11:45:49;;;;;;;27.50;17.10;;;;;;;7.99;98.82;96357.48;105204;1292;26393;-79
2022/11/05 11:48:25;;;;;;;4.60;3.30;;;;;;;7.97;98.91;96364.77;105141;1303;22556;-79
2022/11/05 11:50:57;;;;;;;5.00;3.30;;;;;;;7.96;99.19;96369.11;105179;1288;26433;-79
2022/11/05 11:53:36;;;;;;;4.10;2.70;;;;;;;7.96;99.28;96365.78;105187;1294;22463;-79
2022/11/05 11:56:19;;;;;;;2.50;1.90;;;;;;;7.98;99.43;96369.63;105204;1304;22466;-80
2022/11/05 11:58:53;;;;;;;1.80;1.50;;;;;;;7.97;99.43;96373.48;105149;1297;22809;-79
2022/11/05 12:01:43;;;;;;;2.30;1.60;;;;;;;7.96;99.40;96376.77;105158;1305;25260;-79
2022/11/05 12:04:28;;;;;;;3.50;2.20;;;;;;;7.92;99.50;96381.16;105162;1298;22468;-79
2022/11/05 12:07:13;;;;;;;3.50;2.20;;;;;;;7.91;99.70;96385.06;105167;1306;22497;-79
2022/11/05 12:09:57;;;;;;;3.10;2.10;;;;;;;7.90;99.87;96383.70;105166;1298;22467;-79
2022/11/05 12:12:37;;;;;;;2.90;1.60;;;;;;;7.91;99.98;96384.23;105204;1287;25290;-79
2022/11/05 12:15:26;;;;;;;2.10;1.90;;;;;;;7.88;100.00;96385.58;105181;1306;24327;-80
2022/11/05 12:18:02;;;;;;;4.30;2.90;;;;;;;7.84;100.00;96389.34;105099;1291;22460;-79
2022/11/05 12:20:59;;;;;;;2.90;2.40;;;;;;;7.82;100.00;96391.66;105178;1289;22897;-80
2022/11/05 12:23:53;;;;;;;3.90;3.30;;;;;;;7.78;100.00;96399.91;105159;1287;22464;-79
2022/11/05 12:26:38;;;;;;;6.80;4.60;;;;;;;7.74;100.00;96405.13;105125;1304;22465;-80
2022/11/05 12:29:34;;;;;;;7.50;6.00;;;;;;;7.74;100.00;96403.97;105172;1294;22475;-80
2022/11/05 12:32:26;;;;;;;5.90;4.40;;;;;;;7.74;100.00;96403.23;105165;1285;25315;-80
2022/11/05 12:35:09;;;;;;;11.80;7.90;;;;;;;7.77;100.00;96405.14;105181;1296;22648;-80
2022/11/05 12:37:53;;;;;;;8.70;6.10;;;;;;;7.78;100.00;96402.28;105063;1295;233143;-79
2022/11/05 12:40:39;;;;;;;2.60;1.60;;;;;;;7.79;100.00;96404.08;105254;1298;24284;-79